createdAt,value
2018-07-13T00:01:43.858Z,10.33
2018-07-13T00:04:12.295Z,10.30
2018-07-13T00:06:40.722Z,10.87
2018-07-13T00:09:10.827Z,11.07
2018-07-13T00:11:39.847Z,11.90
2018-07-13T00:14:14.015Z,10.63
2018-07-13T00:16:43.211Z,10.13
2018-07-13T00:19:12.125Z,9.97
2018-07-13T00:21:40.567Z,10.40
2018-07-13T00:24:09.196Z,10.73
2018-07-13T00:26:38.350Z,10.00
2018-07-13T00:29:07.363Z,11.50
2018-07-13T00:31:36.700Z,11.07
2018-07-13T00:34:05.366Z,11.90
2018-07-13T00:36:33.957Z,12.70
2018-07-13T00:39:02.587Z,11.63
2018-07-13T00:41:31.076Z,11.33
2018-07-13T00:43:59.507Z,11.53
2018-07-13T00:46:27.943Z,11.63
2018-07-13T00:48:56.379Z,10.50
2018-07-13T00:51:24.799Z,11.20
2018-07-13T00:53:53.213Z,11.10
2018-07-13T00:56:21.629Z,11.40
2018-07-13T00:58:50.537Z,11.73
2018-07-13T01:01:18.982Z,11.07
2018-07-13T01:03:47.420Z,11.93
2018-07-13T01:06:15.838Z,11.80
2018-07-13T01:08:44.276Z,10.90
2018-07-13T01:11:12.688Z,12.90
2018-07-13T01:13:41.106Z,10.80
2018-07-13T01:16:09.577Z,11.57
2018-07-13T01:18:38.162Z,11.70
2018-07-13T01:21:06.804Z,11.70
2018-07-13T01:23:35.208Z,12.43
2018-07-13T01:26:03.636Z,13.60
2018-07-13T01:28:32.126Z,12.90
2018-07-13T01:31:00.546Z,12.77
2018-07-13T01:33:29.008Z,12.07
2018-07-13T01:35:57.567Z,12.37
2018-07-13T01:38:26.000Z,12.17
2018-07-13T01:40:54.455Z,11.63
2018-07-13T01:43:22.856Z,13.13
2018-07-13T01:45:51.287Z,12.40
2018-07-13T01:48:19.853Z,11.33
2018-07-13T01:50:48.285Z,11.50
2018-07-13T01:53:16.706Z,11.20
2018-07-13T01:55:45.216Z,11.03
2018-07-13T01:58:13.569Z,11.90
2018-07-13T02:00:41.995Z,12.00
2018-07-13T02:03:10.395Z,10.47
2018-07-13T02:05:38.957Z,10.10
2018-07-13T02:08:07.372Z,10.27
2018-07-13T02:10:35.785Z,10.83
2018-07-13T02:13:04.323Z,12.10
2018-07-13T02:15:32.729Z,11.90
2018-07-13T02:18:01.132Z,12.10
2018-07-13T02:20:29.548Z,11.57
2018-07-13T02:22:57.992Z,12.13
2018-07-13T02:25:26.448Z,12.37
2018-07-13T02:27:54.973Z,13.40
2018-07-13T02:30:23.393Z,12.13
2018-07-13T02:32:51.833Z,12.30
2018-07-13T02:35:20.252Z,11.90
2018-07-13T02:37:48.683Z,11.87
2018-07-13T02:40:17.114Z,14.57
2018-07-13T02:42:45.521Z,12.43
2018-07-13T02:45:14.148Z,11.97
2018-07-13T02:47:42.576Z,13.40
2018-07-13T02:50:11.003Z,12.00
2018-07-13T02:52:39.552Z,13.63
2018-07-13T02:55:08.117Z,13.67
2018-07-13T02:57:36.547Z,11.70
2018-07-13T03:00:05.225Z,11.63
2018-07-13T03:02:33.655Z,11.93
2018-07-13T03:05:02.103Z,11.57
2018-07-13T03:07:30.567Z,12.50
2018-07-13T03:09:58.995Z,12.60
2018-07-13T03:12:27.467Z,12.40
2018-07-13T03:14:55.866Z,13.07
2018-07-13T03:17:24.425Z,11.70
2018-07-13T03:19:52.831Z,13.07
2018-07-13T03:22:21.269Z,14.63
2018-07-13T03:24:49.675Z,12.20
2018-07-13T03:27:18.140Z,13.23
2018-07-13T03:29:46.553Z,12.93
2018-07-13T03:32:14.975Z,13.67
2018-07-13T03:34:43.457Z,13.70
2018-07-13T03:37:11.889Z,12.90
2018-07-13T03:39:40.319Z,12.20
2018-07-13T03:42:08.729Z,12.70
2018-07-13T03:44:37.217Z,12.50
2018-07-13T03:47:05.809Z,11.87
2018-07-13T03:49:34.286Z,12.90
2018-07-13T03:52:02.841Z,12.83
2018-07-13T03:54:31.274Z,12.97
2018-07-13T03:56:59.699Z,12.80
2018-07-13T03:59:28.127Z,12.57
2018-07-13T04:01:56.531Z,12.40
2018-07-13T04:04:24.997Z,11.97
2018-07-13T04:06:54.193Z,12.23
2018-07-13T04:09:22.591Z,11.83
2018-07-13T04:11:51.038Z,12.67
2018-07-13T04:14:19.485Z,11.33
2018-07-13T04:16:47.895Z,12.00
2018-07-13T04:19:16.381Z,12.30
2018-07-13T04:21:44.819Z,11.80
2018-07-13T04:24:13.321Z,13.10
2018-07-13T04:26:43.837Z,12.13
2018-07-13T04:29:12.407Z,12.20
2018-07-13T04:31:40.967Z,12.10
2018-07-13T04:34:09.510Z,12.03
2018-07-13T04:36:37.967Z,20.53
2018-07-13T04:39:09.129Z,14.90
2018-07-13T04:41:37.671Z,12.70
2018-07-13T04:44:06.597Z,11.60
2018-07-13T04:46:35.125Z,11.60
2018-07-13T04:49:03.775Z,10.77
2018-07-13T04:51:32.231Z,11.33
2018-07-13T04:54:00.766Z,10.73
2018-07-13T04:56:29.608Z,10.70
2018-07-13T04:58:58.134Z,10.10
2018-07-13T05:01:26.937Z,11.00
2018-07-13T05:03:55.632Z,11.87
2018-07-13T05:06:24.112Z,10.30
2018-07-13T05:08:52.605Z,10.80
2018-07-13T05:11:21.072Z,10.50
2018-07-13T05:13:49.564Z,12.40
2018-07-13T05:16:18.038Z,13.70
2018-07-13T05:18:46.502Z,12.50
2018-07-13T05:21:15.143Z,11.77
2018-07-13T05:23:43.593Z,13.37
2018-07-13T05:26:12.179Z,11.63
2018-07-13T05:28:40.811Z,10.93
2018-07-13T05:31:09.634Z,11.37
2018-07-13T05:33:38.255Z,9.77
2018-07-13T05:36:06.954Z,11.33
2018-07-13T05:38:35.508Z,12.10
2018-07-13T05:41:04.224Z,11.43
2018-07-13T05:43:32.728Z,11.50
2018-07-13T05:46:01.260Z,12.80
2018-07-13T05:48:31.424Z,12.53
2018-07-13T05:51:00.272Z,16.03
2018-07-13T05:53:29.238Z,14.87
2018-07-13T05:55:57.862Z,13.80
2018-07-13T05:58:27.142Z,15.10
2018-07-13T06:00:56.936Z,13.20
2018-07-13T06:03:25.505Z,13.90
2018-07-13T06:05:53.959Z,14.50
2018-07-13T06:08:22.455Z,14.13
2018-07-13T06:10:51.129Z,13.77
2018-07-13T06:13:19.643Z,13.70
2018-07-13T06:15:48.344Z,13.90
2018-07-13T06:18:16.908Z,12.97
2018-07-13T06:20:45.376Z,13.57
2018-07-13T06:23:13.828Z,13.97
2018-07-13T06:25:42.312Z,15.73
2018-07-13T06:28:10.756Z,13.03
2018-07-13T06:30:39.972Z,14.20
2018-07-13T06:33:08.640Z,13.60
2018-07-13T06:35:37.100Z,16.73
2018-07-13T06:38:05.982Z,12.50
2018-07-13T06:40:34.555Z,13.30
2018-07-13T06:43:03.092Z,13.77
2018-07-13T06:45:35.835Z,22.33
2018-07-13T06:48:04.593Z,20.40
2018-07-13T06:50:33.232Z,15.90
2018-07-13T06:53:02.112Z,16.33
2018-07-13T06:55:30.562Z,17.17
2018-07-13T06:58:10.364Z,14.47
2018-07-13T07:01:09.603Z,15.20
2018-07-13T07:04:50.556Z,17.07
2018-07-13T07:07:21.696Z,16.30
2018-07-13T07:09:51.619Z,13.90
2018-07-13T07:13:28.930Z,16.20
2018-07-13T07:15:57.587Z,16.70
2018-07-13T07:18:26.052Z,15.33
2018-07-13T07:20:55.479Z,14.20
2018-07-13T07:23:24.040Z,15.67
2018-07-13T07:25:53.043Z,14.80
2018-07-13T07:28:21.505Z,15.77
2018-07-13T07:30:50.032Z,15.87
2018-07-13T07:33:18.435Z,15.90
2018-07-13T07:35:46.899Z,14.60
2018-07-13T07:38:16.795Z,15.20
2018-07-13T07:40:45.641Z,14.27
2018-07-13T07:43:14.096Z,15.43
2018-07-13T07:45:42.601Z,12.13
2018-07-13T07:48:11.297Z,12.33
2018-07-13T07:50:39.767Z,13.90
2018-07-13T07:53:08.249Z,13.10
2018-07-13T07:55:36.703Z,14.07
2018-07-13T07:58:05.627Z,14.83
2018-07-13T08:00:34.097Z,14.90
2018-07-13T08:03:02.549Z,12.57
2018-07-13T08:05:30.963Z,11.83
2018-07-13T08:07:59.355Z,13.27
2018-07-13T08:10:28.023Z,14.37
2018-07-13T08:12:56.399Z,11.60
2018-07-13T08:15:24.847Z,11.83
2018-07-13T08:17:53.241Z,13.37
2018-07-13T08:20:25.457Z,13.43
2018-07-13T08:22:58.989Z,13.27
2018-07-13T08:25:27.818Z,12.70
2018-07-13T08:28:02.101Z,10.63
2018-07-13T08:30:33.280Z,10.47
2018-07-13T08:33:01.750Z,11.50
2018-07-13T08:35:30.126Z,10.33
2018-07-13T08:37:58.544Z,11.90
2018-07-13T08:40:27.038Z,14.20
2018-07-13T08:42:55.479Z,10.90
2018-07-13T08:45:24.128Z,9.70
2018-07-13T08:47:52.568Z,9.67
2018-07-13T08:50:21.061Z,8.23
2018-07-13T08:52:49.572Z,9.97
2018-07-13T08:55:18.019Z,10.60
2018-07-13T08:57:48.003Z,10.07
2018-07-13T09:00:16.314Z,9.13
2018-07-13T09:02:44.730Z,20.37
2018-07-13T09:05:13.480Z,11.50
2018-07-13T09:07:42.844Z,11.40
2018-07-13T09:10:12.317Z,8.23
2018-07-13T09:12:41.393Z,9.43
2018-07-13T09:15:11.328Z,9.43
2018-07-13T09:17:39.782Z,8.93
2018-07-13T09:20:09.716Z,7.67
2018-07-13T09:22:38.223Z,11.07
2018-07-13T09:25:07.372Z,8.20
2018-07-13T09:27:35.798Z,10.80
2018-07-13T09:30:04.542Z,12.60
2018-07-13T09:32:32.967Z,10.10
2018-07-13T09:35:01.396Z,9.20
2018-07-13T09:37:29.879Z,7.13
2018-07-13T09:39:58.326Z,8.13
2018-07-13T09:42:26.774Z,8.50
2018-07-13T09:44:55.203Z,7.83
2018-07-13T09:47:23.823Z,9.00
2018-07-13T09:49:52.268Z,8.30
2018-07-13T09:52:21.278Z,10.47
2018-07-13T09:54:49.717Z,8.47
2018-07-13T09:57:18.187Z,8.90
2018-07-13T09:59:47.085Z,8.30
2018-07-13T10:02:15.588Z,9.13
2018-07-13T10:04:44.076Z,7.40
2018-07-13T10:07:12.716Z,7.83
2018-07-13T10:09:41.155Z,7.37
2018-07-13T10:12:09.612Z,7.43
2018-07-13T10:14:38.121Z,6.73
2018-07-13T10:17:06.643Z,5.93
2018-07-13T10:19:35.112Z,8.20
2018-07-13T10:22:03.584Z,6.70
2018-07-13T10:24:33.099Z,7.03
2018-07-13T10:27:01.609Z,7.37
2018-07-13T10:29:33.017Z,7.40
2018-07-13T10:32:02.272Z,5.73
2018-07-13T10:34:30.787Z,5.83
2018-07-13T10:37:02.835Z,6.53
2018-07-13T10:39:31.828Z,6.70
2018-07-13T10:42:00.494Z,6.90
2018-07-13T10:44:28.958Z,6.47
2018-07-13T10:46:57.403Z,5.33
2018-07-13T10:49:25.908Z,6.17
2018-07-13T10:51:54.348Z,5.40
2018-07-13T10:54:22.960Z,5.70
2018-07-13T10:56:51.624Z,6.60
2018-07-13T10:59:19.988Z,7.03
2018-07-13T11:01:48.448Z,5.40
2018-07-13T11:04:16.917Z,7.30
2018-07-13T11:06:45.857Z,7.23
2018-07-13T11:09:14.280Z,7.03
2018-07-13T11:11:42.681Z,6.43
2018-07-13T11:14:11.466Z,7.70
2018-07-13T11:16:40.309Z,5.90
2018-07-13T11:19:08.818Z,6.20
2018-07-13T11:21:37.299Z,6.23
2018-07-13T11:24:05.763Z,4.77
2018-07-13T11:26:34.215Z,5.03
2018-07-13T11:29:02.636Z,4.70
2018-07-13T11:31:31.171Z,4.63
2018-07-13T11:33:59.576Z,4.70
2018-07-13T11:36:28.068Z,3.50
2018-07-13T11:38:56.928Z,3.40
2018-07-13T11:41:25.340Z,3.80
2018-07-13T11:43:53.769Z,4.07
2018-07-13T11:46:22.180Z,4.10
2018-07-13T11:48:50.642Z,4.70
2018-07-13T11:51:19.214Z,4.00
2018-07-13T11:53:47.660Z,3.70
2018-07-13T11:56:16.064Z,4.20
2018-07-13T11:58:44.544Z,4.43
2018-07-13T12:01:13.864Z,3.80
2018-07-13T12:03:42.384Z,3.60
2018-07-13T12:06:10.800Z,3.53
2018-07-13T12:08:39.240Z,4.30
2018-07-13T12:11:07.722Z,3.77
2018-07-13T12:13:36.140Z,3.70
2018-07-13T12:16:04.867Z,3.80
2018-07-13T12:18:33.400Z,3.17
2018-07-13T12:21:02.013Z,3.13
2018-07-13T12:23:30.432Z,3.57
2018-07-13T12:26:00.067Z,3.00
2018-07-13T12:28:28.529Z,3.60
2018-07-13T12:30:56.930Z,2.67
2018-07-13T12:33:25.323Z,3.17
2018-07-13T12:35:53.714Z,4.13
2018-07-13T12:38:22.249Z,3.50
2018-07-13T12:40:50.715Z,3.20
2018-07-13T12:43:19.287Z,4.13
2018-07-13T12:45:47.787Z,2.97
2018-07-13T12:48:16.363Z,3.60
2018-07-13T12:50:45.919Z,4.03
2018-07-13T12:53:15.382Z,3.33
2018-07-13T12:55:44.545Z,3.27
2018-07-13T12:58:12.976Z,3.60
2018-07-13T13:00:42.185Z,3.83
2018-07-13T13:03:10.635Z,3.67
2018-07-13T13:05:39.167Z,3.73
2018-07-13T13:08:07.544Z,3.40
2018-07-13T13:10:36.023Z,3.57
2018-07-13T13:13:04.458Z,3.40
2018-07-13T13:15:32.916Z,3.17
2018-07-13T13:18:01.312Z,5.00
2018-07-13T13:20:29.746Z,3.80
2018-07-13T13:22:57.964Z,3.30
2018-07-13T13:25:26.424Z,2.90
2018-07-13T13:27:54.858Z,3.37
2018-07-13T13:30:23.380Z,3.67
2018-07-13T13:32:51.953Z,3.50
2018-07-13T13:35:20.349Z,3.37
2018-07-13T13:37:48.786Z,3.33
2018-07-13T13:40:17.206Z,3.67
2018-07-13T13:42:45.821Z,3.30
2018-07-13T13:45:14.264Z,3.33
2018-07-13T13:47:42.710Z,3.50
2018-07-13T13:50:11.165Z,3.97
2018-07-13T13:52:39.560Z,3.90
2018-07-13T13:55:08.034Z,3.00
2018-07-13T13:57:36.437Z,3.10
2018-07-13T14:00:04.920Z,3.00
2018-07-13T14:02:33.441Z,2.90
2018-07-13T14:05:01.921Z,2.90
2018-07-13T14:07:30.573Z,3.60
2018-07-13T14:09:59.052Z,3.57
2018-07-13T14:12:27.560Z,5.17
2018-07-13T14:14:56.061Z,4.00
2018-07-13T14:17:25.272Z,4.00
2018-07-13T14:19:54.463Z,3.23
2018-07-13T14:22:22.876Z,3.27
2018-07-13T14:24:51.348Z,3.60
2018-07-13T14:27:19.876Z,3.17
2018-07-13T14:29:48.300Z,3.30
2018-07-13T14:32:16.736Z,2.67
2018-07-13T14:34:45.172Z,3.57
2018-07-13T14:37:13.601Z,3.50
2018-07-13T14:39:42.032Z,3.47
2018-07-13T14:42:10.455Z,4.87
2018-07-13T14:44:38.883Z,3.63
2018-07-13T14:47:07.625Z,4.13
2018-07-13T14:49:35.900Z,4.27
2018-07-13T14:52:04.390Z,4.20
2018-07-13T14:54:32.832Z,3.50
2018-07-13T14:57:01.264Z,3.63
2018-07-13T14:59:29.696Z,7.77
2018-07-13T15:01:58.140Z,37.43
2018-07-13T15:04:26.586Z,5.40
2018-07-13T15:06:55.068Z,4.27
2018-07-13T15:09:23.413Z,5.40
2018-07-13T15:11:51.855Z,4.60
2018-07-13T15:14:20.327Z,4.10
2018-07-13T15:16:48.889Z,3.50
2018-07-13T15:19:17.381Z,4.67
2018-07-13T15:21:45.872Z,3.47
2018-07-13T15:24:15.293Z,4.33
2018-07-13T15:26:43.759Z,3.83
2018-07-13T15:29:12.224Z,4.27
2018-07-13T15:31:40.844Z,3.90
2018-07-13T15:34:09.351Z,4.30
2018-07-13T15:36:37.791Z,4.03
2018-07-13T15:39:06.763Z,3.87
2018-07-13T15:41:35.339Z,4.23
2018-07-13T15:44:03.866Z,4.20
2018-07-13T15:46:32.317Z,4.10
2018-07-13T15:49:00.869Z,4.27
2018-07-13T15:51:29.465Z,4.50
2018-07-13T15:53:58.219Z,4.40
2018-07-13T15:56:26.701Z,4.70
2018-07-13T15:58:55.170Z,4.90
2018-07-13T16:01:23.505Z,5.10
2018-07-13T16:03:52.033Z,4.30
2018-07-13T16:06:20.860Z,4.83
2018-07-13T16:08:49.401Z,5.67
2018-07-13T16:11:17.839Z,5.07
2018-07-13T16:13:46.385Z,5.43
2018-07-13T16:16:14.801Z,5.20
2018-07-13T16:18:43.221Z,5.10
2018-07-13T16:21:11.679Z,4.30
2018-07-13T16:23:40.302Z,4.10
2018-07-13T16:26:08.716Z,4.77
2018-07-13T16:28:37.637Z,4.33
2018-07-13T16:31:06.355Z,4.50
2018-07-13T16:33:35.039Z,4.40
2018-07-13T16:36:03.454Z,4.60
2018-07-13T16:38:31.855Z,5.87
2018-07-13T16:41:00.281Z,4.63
2018-07-13T16:43:28.704Z,5.33
2018-07-13T16:45:57.104Z,5.70
2018-07-13T16:48:25.505Z,9.00
2018-07-13T16:50:54.111Z,6.23
2018-07-13T16:53:22.580Z,6.30
2018-07-13T16:55:51.100Z,7.40
2018-07-13T16:58:19.897Z,7.60
2018-07-13T17:00:48.343Z,6.00
2018-07-13T17:03:16.906Z,5.80
2018-07-13T17:05:45.214Z,4.90
2018-07-13T17:08:13.645Z,5.73
2018-07-13T17:10:42.081Z,6.83
2018-07-13T17:13:10.481Z,4.23
2018-07-13T17:15:38.981Z,5.53
2018-07-13T17:18:07.453Z,4.53
2018-07-13T17:20:36.103Z,5.53
2018-07-13T17:23:04.423Z,6.47
2018-07-13T17:25:32.897Z,5.17
2018-07-13T17:28:01.457Z,5.63
2018-07-13T17:30:29.975Z,4.50
2018-07-13T17:32:58.358Z,4.30
2018-07-13T17:35:26.775Z,4.03
2018-07-13T17:37:55.181Z,5.03
2018-07-13T17:40:23.588Z,5.73
2018-07-13T17:42:52.418Z,4.40
2018-07-13T17:45:20.611Z,5.07
2018-07-13T17:47:49.045Z,4.23
2018-07-13T17:50:17.441Z,5.57
2018-07-13T17:52:45.987Z,4.83
2018-07-13T17:55:14.417Z,4.57
2018-07-13T17:57:42.815Z,4.70
2018-07-13T18:00:11.279Z,4.40
2018-07-13T18:02:39.785Z,4.37
2018-07-13T18:05:08.233Z,4.73
2018-07-13T18:07:36.673Z,4.70
2018-07-13T18:10:05.278Z,4.50
2018-07-13T18:12:33.770Z,5.30
2018-07-13T18:15:02.241Z,4.67
2018-07-13T18:17:30.707Z,4.53
2018-07-13T18:19:59.091Z,5.03
2018-07-13T18:22:27.559Z,4.70
2018-07-13T18:24:56.165Z,5.33
2018-07-13T18:27:24.600Z,5.00
2018-07-13T18:29:53.005Z,4.90
2018-07-13T18:32:21.597Z,5.30
2018-07-13T18:34:50.041Z,4.67
2018-07-13T18:37:18.424Z,4.70
2018-07-13T18:39:46.956Z,4.90
2018-07-13T18:42:15.394Z,4.67
2018-07-13T18:44:43.823Z,4.87
2018-07-13T18:47:12.477Z,4.40
2018-07-13T18:49:40.977Z,4.83
2018-07-13T18:52:09.344Z,5.53
2018-07-13T18:54:37.752Z,5.33
2018-07-13T18:57:06.178Z,4.37
2018-07-13T18:59:34.744Z,5.20
2018-07-13T19:02:03.345Z,5.00
2018-07-13T19:04:31.745Z,5.07
2018-07-13T19:07:00.168Z,5.10
2018-07-13T19:09:29.201Z,4.77
2018-07-13T19:11:57.773Z,4.70
2018-07-13T19:14:26.196Z,5.27
2018-07-13T19:16:54.651Z,6.63
2018-07-13T19:19:23.117Z,8.60
2018-07-13T19:21:51.611Z,6.97
2018-07-13T19:24:19.995Z,5.80
2018-07-13T19:26:48.431Z,4.97
2018-07-13T19:29:16.913Z,6.87
2018-07-13T19:31:45.315Z,6.83
2018-07-13T19:34:14.717Z,5.20
2018-07-13T19:36:43.169Z,5.07
2018-07-13T19:39:11.598Z,6.43
2018-07-13T19:41:40.055Z,5.20
2018-07-13T19:44:08.509Z,4.90
2018-07-13T19:46:37.208Z,6.50
2018-07-13T19:49:18.211Z,5.37
2018-07-13T19:51:46.962Z,5.37
2018-07-13T19:54:15.774Z,5.37
2018-07-13T19:56:44.244Z,5.30
2018-07-13T19:59:12.641Z,4.97
2018-07-13T20:01:41.094Z,5.50
2018-07-13T20:04:09.536Z,11.00
2018-07-13T20:06:38.068Z,6.60
2018-07-13T20:09:07.268Z,5.20
2018-07-13T20:11:35.722Z,4.83
2018-07-13T20:14:04.206Z,4.90
2018-07-13T20:16:32.639Z,4.50
2018-07-13T20:19:01.041Z,5.10
2018-07-13T20:21:29.523Z,5.00
2018-07-13T20:23:57.949Z,5.33
2018-07-13T20:26:26.490Z,5.30
2018-07-13T20:28:55.001Z,5.23
2018-07-13T20:31:23.405Z,5.37
2018-07-13T20:33:51.793Z,6.30
2018-07-13T20:36:20.232Z,5.63
2018-07-13T20:38:48.675Z,6.67
2018-07-13T20:41:17.082Z,6.07
2018-07-13T20:43:45.620Z,6.40
2018-07-13T20:46:14.291Z,6.53
2018-07-13T20:48:42.726Z,6.33
2018-07-13T20:51:11.223Z,5.90
2018-07-13T20:53:39.707Z,6.60
2018-07-13T20:56:08.336Z,6.93
2018-07-13T20:58:37.055Z,6.63
2018-07-13T21:01:05.452Z,7.20
2018-07-13T21:03:33.941Z,6.53
2018-07-13T21:06:02.560Z,7.30
2018-07-13T21:08:30.975Z,6.67
2018-07-13T21:10:59.620Z,7.17
2018-07-13T21:13:28.034Z,7.20
2018-07-13T21:15:56.468Z,6.50
2018-07-13T21:18:25.012Z,6.70
2018-07-13T21:20:53.454Z,6.50
2018-07-13T21:23:21.852Z,7.03
2018-07-13T21:25:50.262Z,6.30
2018-07-13T21:28:18.710Z,6.73
2018-07-13T21:30:47.242Z,8.53
2018-07-13T21:33:15.632Z,7.50
2018-07-13T21:35:44.110Z,6.33
2018-07-13T21:38:12.738Z,6.70
2018-07-13T21:40:41.190Z,6.67
2018-07-13T21:43:09.768Z,6.53
2018-07-13T21:45:38.218Z,5.80
2018-07-13T21:48:06.888Z,6.60
2018-07-13T21:50:35.300Z,6.77
2018-07-13T21:53:03.781Z,6.07
2018-07-13T21:55:32.359Z,6.87
2018-07-13T21:58:01.070Z,6.50
2018-07-13T22:00:29.948Z,5.83
2018-07-13T22:02:58.424Z,6.73
2018-07-13T22:05:26.976Z,12.97
2018-07-13T22:07:55.480Z,11.50
2018-07-13T22:10:23.904Z,15.50
2018-07-13T22:12:52.860Z,15.23
2018-07-13T22:15:21.350Z,15.10
2018-07-13T22:17:49.822Z,14.53
2018-07-13T22:20:18.746Z,12.30
2018-07-13T22:22:47.432Z,8.77
2018-07-13T22:25:16.476Z,9.97
2018-07-13T22:27:44.936Z,13.77
2018-07-13T22:30:13.488Z,19.23
2018-07-13T22:32:42.958Z,15.40
2018-07-13T22:35:11.352Z,10.30
2018-07-13T22:37:39.820Z,10.80
2018-07-13T22:40:08.584Z,10.20
2018-07-13T22:42:37.161Z,8.00
2018-07-13T22:45:06.106Z,9.37
2018-07-13T22:47:34.588Z,8.60
2018-07-13T22:50:03.218Z,11.63
2018-07-13T22:52:31.647Z,8.70
2018-07-13T22:55:00.339Z,9.30
2018-07-13T22:57:28.738Z,9.80
2018-07-13T22:59:57.198Z,11.27
2018-07-13T23:02:25.638Z,11.40
2018-07-13T23:04:54.139Z,9.60
2018-07-13T23:07:23.524Z,9.33
2018-07-13T23:09:54.524Z,8.43
2018-07-13T23:12:23.364Z,9.10
2018-07-13T23:14:51.794Z,9.87
2018-07-13T23:17:20.215Z,8.10
2018-07-13T23:19:48.678Z,10.07
2018-07-13T23:22:17.150Z,12.30
2018-07-13T23:24:45.588Z,11.77
2018-07-13T23:27:14.982Z,10.47
2018-07-13T23:29:43.408Z,11.03
2018-07-13T23:32:11.887Z,10.23
2018-07-13T23:34:40.400Z,8.53
2018-07-13T23:37:08.816Z,8.70
2018-07-13T23:39:37.264Z,10.03
2018-07-13T23:42:05.711Z,8.63
2018-07-13T23:44:34.128Z,10.13
2018-07-13T23:47:02.761Z,10.43
2018-07-13T23:49:31.199Z,12.30
2018-07-13T23:51:59.631Z,12.30
2018-07-13T23:54:28.092Z,9.67
2018-07-13T23:56:56.584Z,9.67
2018-07-13T23:59:25.051Z,9.20
